createdAt,value
2022-12-23T00:01:27.148Z,27.25
2022-12-23T00:03:59.538Z,31.63
2022-12-23T00:06:27.853Z,34.15
2022-12-23T00:08:59.072Z,24.25
2022-12-23T00:11:29.061Z,31.92
2022-12-23T00:14:21.265Z,36.10
2022-12-23T00:16:51.153Z,30.10
2022-12-23T00:19:19.468Z,29.50
2022-12-23T00:21:48.881Z,34.22
2022-12-23T00:24:16.813Z,29.08
2022-12-23T00:26:45.087Z,36.30
2022-12-23T00:29:12.968Z,35.38
2022-12-23T00:31:41.197Z,40.80
2022-12-23T00:34:11.098Z,39.75
2022-12-23T00:36:39.079Z,47.00
2022-12-23T00:39:27.517Z,45.83
2022-12-23T00:42:13.928Z,54.10
2022-12-23T00:44:41.948Z,36.72
2022-12-23T00:47:29.887Z,38.90
2022-12-23T00:52:25.494Z,29.67
2022-12-23T00:54:53.428Z,35.97
2022-12-23T00:57:21.547Z,39.15
2022-12-23T00:59:49.601Z,37.92
2022-12-23T01:02:36.107Z,33.97
2022-12-23T01:05:23.169Z,35.58
2022-12-23T01:07:51.147Z,28.73
2022-12-23T01:10:19.142Z,27.02
2022-12-23T01:12:46.955Z,23.95
2022-12-23T01:15:15.006Z,32.00
2022-12-23T01:17:42.996Z,27.38
2022-12-23T01:20:11.483Z,23.23
2022-12-23T01:22:39.461Z,28.13
2022-12-23T01:25:07.686Z,27.17
2022-12-23T01:27:35.671Z,29.75
2022-12-23T01:30:04.545Z,33.92
2022-12-23T01:32:32.500Z,22.23
2022-12-23T01:35:00.541Z,26.50
2022-12-23T01:37:28.416Z,25.40
2022-12-23T01:39:56.285Z,27.98
2022-12-23T01:42:42.695Z,25.10
2022-12-23T01:45:15.265Z,28.85
2022-12-23T01:47:55.463Z,32.10
2022-12-23T01:50:28.519Z,42.60
2022-12-23T01:52:58.467Z,38.00
2022-12-23T01:55:32.734Z,41.70
2022-12-23T01:58:11.128Z,27.13
2022-12-23T02:01:00.151Z,25.85
2022-12-23T02:03:44.086Z,28.50
2022-12-23T02:06:56.482Z,33.00
2022-12-23T02:09:28.649Z,35.65
2022-12-23T02:12:14.583Z,33.55
2022-12-23T02:15:22.839Z,27.90
2022-12-23T02:18:04.685Z,23.55
2022-12-23T02:20:38.808Z,21.58
2022-12-23T02:23:24.639Z,17.83
2022-12-23T02:26:25.373Z,22.02
2022-12-23T02:29:12.757Z,23.55
2022-12-23T02:31:51.349Z,24.90
2022-12-23T02:34:21.154Z,26.98
2022-12-23T02:37:10.247Z,28.40
2022-12-23T02:40:02.276Z,27.08
2022-12-23T02:42:35.849Z,27.27
2022-12-23T02:45:12.889Z,26.65
2022-12-23T02:48:17.000Z,26.73
2022-12-23T02:50:47.462Z,21.48
2022-12-23T02:53:41.228Z,20.65
2022-12-23T02:56:12.267Z,24.15
2022-12-23T03:00:24.296Z,25.30
2022-12-23T03:02:52.883Z,25.05
2022-12-23T03:05:25.582Z,36.50
2022-12-23T03:08:00.506Z,32.13
2022-12-23T03:10:34.253Z,39.15
2022-12-23T03:13:20.524Z,45.08
2022-12-23T03:16:40.139Z,37.08
2022-12-23T03:19:29.437Z,28.10
2022-12-23T03:22:20.511Z,27.60
2022-12-23T03:25:02.969Z,29.80
2022-12-23T03:27:37.157Z,31.00
2022-12-23T03:30:15.257Z,31.25
2022-12-23T03:32:48.436Z,27.95
2022-12-23T03:35:20.472Z,28.48
2022-12-23T03:37:50.941Z,21.92
2022-12-23T03:40:24.020Z,18.45
2022-12-23T03:42:58.949Z,23.88
2022-12-23T03:45:40.808Z,26.70
2022-12-23T03:48:24.198Z,25.48
2022-12-23T03:50:58.161Z,24.58
2022-12-23T03:53:31.677Z,27.25
2022-12-23T03:56:05.649Z,23.20
2022-12-23T03:58:39.040Z,24.85
2022-12-23T04:01:12.547Z,21.77
2022-12-23T04:04:10.567Z,20.98
2022-12-23T04:06:51.335Z,20.85
2022-12-23T04:09:22.676Z,32.28
2022-12-23T04:11:51.102Z,30.58
2022-12-23T04:14:20.561Z,39.47
2022-12-23T04:16:53.591Z,38.58
2022-12-23T04:19:21.660Z,27.65
2022-12-23T04:21:49.765Z,22.63
2022-12-23T04:24:17.749Z,34.92
2022-12-23T04:26:45.627Z,34.70
2022-12-23T04:29:13.580Z,46.60
2022-12-23T04:31:41.640Z,33.60
2022-12-23T04:34:09.870Z,27.08
2022-12-23T04:36:37.884Z,28.92
2022-12-23T04:39:05.763Z,27.38
2022-12-23T04:41:33.644Z,28.33
2022-12-23T04:44:03.904Z,23.80
2022-12-23T04:46:32.028Z,21.85
2022-12-23T04:49:00.146Z,24.40
2022-12-23T04:51:28.078Z,23.23
2022-12-23T04:53:56.099Z,24.98
2022-12-23T04:56:24.074Z,26.17
2022-12-23T04:58:52.811Z,30.52
2022-12-23T05:01:21.255Z,36.75
2022-12-23T05:03:49.183Z,36.67
2022-12-23T05:06:17.158Z,32.63
2022-12-23T05:08:45.133Z,35.60
2022-12-23T05:11:13.261Z,35.92
2022-12-23T05:13:41.223Z,35.47
2022-12-23T05:16:09.281Z,22.42
2022-12-23T05:18:37.167Z,18.52
2022-12-23T05:21:05.494Z,20.45
2022-12-23T05:23:33.543Z,24.42
2022-12-23T05:26:01.658Z,28.65
2022-12-23T05:28:29.995Z,23.95
2022-12-23T05:30:59.981Z,19.63
2022-12-23T05:33:28.939Z,23.80
2022-12-23T05:35:57.872Z,23.48
2022-12-23T05:38:26.427Z,29.63
2022-12-23T05:40:54.844Z,39.50
2022-12-23T05:43:23.335Z,35.50
2022-12-23T05:45:51.632Z,40.65
2022-12-23T05:48:19.750Z,52.25
2022-12-23T05:50:51.285Z,35.08
2022-12-23T05:53:20.537Z,31.90
2022-12-23T05:55:48.838Z,32.90
2022-12-23T05:58:17.284Z,38.65
2022-12-23T06:00:45.457Z,37.95
2022-12-23T06:03:13.750Z,61.67
2022-12-23T06:05:43.754Z,53.05
2022-12-23T06:08:11.793Z,51.33
2022-12-23T06:10:42.865Z,40.58
2022-12-23T06:13:10.805Z,52.00
2022-12-23T06:15:38.790Z,46.40
2022-12-23T06:18:06.960Z,43.90
2022-12-23T06:20:34.936Z,45.80
2022-12-23T06:23:02.912Z,47.45
2022-12-23T06:25:38.161Z,57.45
2022-12-23T06:28:08.050Z,68.05
2022-12-23T06:30:36.299Z,52.70
2022-12-23T06:33:04.199Z,45.72
2022-12-23T06:35:32.194Z,50.00
2022-12-23T06:38:00.161Z,49.95
2022-12-23T06:40:29.871Z,50.35
2022-12-23T06:42:57.871Z,57.28
2022-12-23T06:45:26.056Z,47.13
2022-12-23T06:47:53.955Z,48.38
2022-12-23T06:50:22.439Z,38.65
2022-12-23T06:52:50.534Z,39.67
2022-12-23T06:55:18.436Z,33.63
2022-12-23T06:57:46.524Z,38.30
2022-12-23T07:00:15.177Z,38.35
2022-12-23T07:02:43.192Z,46.25
2022-12-23T07:05:11.287Z,45.33
2022-12-23T07:07:39.172Z,45.13
2022-12-23T07:10:08.126Z,42.90
2022-12-23T07:12:36.052Z,35.58
2022-12-23T07:15:04.700Z,43.40
2022-12-23T07:17:32.854Z,42.28
2022-12-23T07:20:01.094Z,42.03
2022-12-23T07:22:28.995Z,44.80
2022-12-23T07:24:57.297Z,42.45
2022-12-23T07:27:25.214Z,81.82
2022-12-23T07:29:53.359Z,57.70
2022-12-23T07:32:21.289Z,50.47
2022-12-23T07:34:49.268Z,52.58
2022-12-23T07:37:17.292Z,51.42
2022-12-23T07:39:45.321Z,45.00
2022-12-23T07:45:02.009Z,51.92
2022-12-23T07:47:31.397Z,54.40
2022-12-23T07:49:59.521Z,63.90
2022-12-23T07:52:31.885Z,61.75
2022-12-23T07:54:59.941Z,53.45
2022-12-23T07:57:29.559Z,57.50
2022-12-23T07:59:58.239Z,48.92
2022-12-23T08:02:26.366Z,74.22
2022-12-23T08:04:54.727Z,65.68
2022-12-23T08:07:22.659Z,51.45
2022-12-23T08:09:50.591Z,44.85
2022-12-23T08:12:18.587Z,34.17
2022-12-23T08:14:48.654Z,38.80
2022-12-23T08:17:16.724Z,41.90
2022-12-23T08:19:44.869Z,35.35
2022-12-23T08:22:13.266Z,32.53
2022-12-23T08:24:41.201Z,29.50
2022-12-23T08:27:09.323Z,31.52
2022-12-23T08:29:37.186Z,30.00
2022-12-23T08:32:05.487Z,28.65
2022-12-23T08:34:33.823Z,31.15
2022-12-23T08:37:02.331Z,39.25
2022-12-23T08:39:30.280Z,28.23
2022-12-23T08:41:58.696Z,27.33
2022-12-23T08:44:30.173Z,24.13
2022-12-23T08:46:58.259Z,19.55
2022-12-23T08:49:27.061Z,31.63
2022-12-23T08:51:54.977Z,20.23
2022-12-23T08:54:24.030Z,18.10
2022-12-23T08:56:51.864Z,25.73
2022-12-23T08:59:20.101Z,25.92
2022-12-23T09:01:48.639Z,27.60
2022-12-23T09:04:17.229Z,20.75
2022-12-23T09:06:45.768Z,14.75
2022-12-23T09:09:15.894Z,13.48
2022-12-23T09:11:44.253Z,17.85
2022-12-23T09:14:12.532Z,24.55
2022-12-23T09:16:40.610Z,19.10
2022-12-23T09:19:08.679Z,16.13
2022-12-23T09:21:36.926Z,18.52
2022-12-23T09:24:05.625Z,19.80
2022-12-23T09:26:33.634Z,16.17
2022-12-23T09:29:01.599Z,20.05
2022-12-23T09:31:36.152Z,20.27
2022-12-23T09:34:06.133Z,18.90
2022-12-23T09:36:34.564Z,14.98
2022-12-23T09:39:02.661Z,11.48
2022-12-23T09:41:52.549Z,11.52
2022-12-23T09:44:43.454Z,12.18
2022-12-23T09:47:18.270Z,27.60
2022-12-23T09:50:00.588Z,23.38
2022-12-23T09:52:58.674Z,56.40
2022-12-23T09:55:47.418Z,21.75
2022-12-23T09:58:42.753Z,14.57
2022-12-23T10:01:40.149Z,10.43
2022-12-23T10:04:27.110Z,11.90
2022-12-23T10:07:38.414Z,15.52
2022-12-23T10:10:15.337Z,15.15
2022-12-23T10:12:50.250Z,38.00
2022-12-23T10:15:28.529Z,24.08
2022-12-23T10:18:02.332Z,17.35
2022-12-23T10:20:54.108Z,19.52
2022-12-23T10:23:35.943Z,27.55
2022-12-23T10:26:32.775Z,31.75
2022-12-23T10:29:16.949Z,10.18
2022-12-23T10:32:25.970Z,10.57
2022-12-23T10:35:01.138Z,22.85
2022-12-23T10:37:34.678Z,19.52
2022-12-23T10:40:22.239Z,18.05
2022-12-23T10:43:31.053Z,10.98
2022-12-23T10:46:28.111Z,39.13
2022-12-23T10:49:23.775Z,15.73
2022-12-23T10:51:57.810Z,22.33
2022-12-23T10:54:46.616Z,24.25
2022-12-23T10:57:17.317Z,15.23
2022-12-23T10:59:46.012Z,14.73
2022-12-23T11:02:14.235Z,20.42
2022-12-23T11:04:47.809Z,15.88
2022-12-23T11:07:43.958Z,25.65
2022-12-23T11:10:19.802Z,15.10
2022-12-23T11:12:50.960Z,25.35
2022-12-23T11:15:40.391Z,12.68
2022-12-23T11:18:12.446Z,17.20
2022-12-23T11:20:43.087Z,23.02
2022-12-23T11:23:28.690Z,15.07
2022-12-23T11:26:09.088Z,17.13
2022-12-23T11:28:40.364Z,16.00
2022-12-23T11:31:14.629Z,11.27
2022-12-23T11:33:57.898Z,23.70
2022-12-23T11:36:28.563Z,24.23
2022-12-23T11:39:03.658Z,13.30
2022-12-23T11:41:42.732Z,19.73
2022-12-23T11:44:22.196Z,30.02
2022-12-23T11:46:51.158Z,37.40
2022-12-23T11:49:27.967Z,13.40
2022-12-23T11:52:02.131Z,18.92
2022-12-23T11:54:30.611Z,15.10
2022-12-23T11:56:59.494Z,14.27
2022-12-23T11:59:29.863Z,18.80
2022-12-23T12:02:01.057Z,21.02
2022-12-23T12:04:35.624Z,22.08
2022-12-23T12:07:05.807Z,25.88
2022-12-23T12:09:34.858Z,17.10
2022-12-23T12:14:57.085Z,21.17
2022-12-23T12:17:37.974Z,20.67
2022-12-23T12:20:21.116Z,21.42
2022-12-23T12:23:06.626Z,21.00
2022-12-23T12:25:43.492Z,18.40
2022-12-23T12:28:20.461Z,34.80
2022-12-23T12:30:58.141Z,26.88
2022-12-23T12:33:34.096Z,31.65
2022-12-23T12:36:15.105Z,17.88
2022-12-23T12:38:48.091Z,18.02
2022-12-23T12:41:39.979Z,19.45
2022-12-23T12:44:31.079Z,21.05
2022-12-23T12:47:21.859Z,20.10
2022-12-23T12:50:03.153Z,20.75
2022-12-23T12:52:39.364Z,23.15
2022-12-23T12:55:22.804Z,25.40
2022-12-23T12:57:50.957Z,20.48
2022-12-23T13:00:23.386Z,25.52
2022-12-23T13:03:16.265Z,21.02
2022-12-23T13:06:02.900Z,14.73
2022-12-23T13:08:36.928Z,15.65
2022-12-23T13:11:16.500Z,20.38
2022-12-23T13:13:56.626Z,22.58
2022-12-23T13:16:42.485Z,12.57
2022-12-23T13:19:38.771Z,13.82
2022-12-23T13:22:16.312Z,13.43
2022-12-23T13:25:09.662Z,14.98
2022-12-23T13:30:19.309Z,12.40
2022-12-23T13:33:09.360Z,13.98
2022-12-23T13:35:46.815Z,11.25
2022-12-23T13:38:36.337Z,15.32
2022-12-23T13:41:23.597Z,13.85
2022-12-23T13:46:54.944Z,33.65
2022-12-23T13:49:42.582Z,21.98
2022-12-23T13:52:33.779Z,25.95
2022-12-23T13:55:18.891Z,18.85
2022-12-23T13:58:22.482Z,23.58
2022-12-23T14:01:32.088Z,21.17
2022-12-23T14:04:32.140Z,22.85
2022-12-23T14:07:03.849Z,28.70
2022-12-23T14:09:38.750Z,24.95
2022-12-23T14:12:29.740Z,24.75
2022-12-23T14:15:22.170Z,33.00
2022-12-23T14:18:31.334Z,27.85
2022-12-23T14:21:08.370Z,24.90
2022-12-23T14:24:22.005Z,28.98
2022-12-23T14:26:52.692Z,24.95
2022-12-23T14:29:33.604Z,23.38
2022-12-23T14:32:02.044Z,33.72
2022-12-23T14:34:34.202Z,34.05
2022-12-23T14:37:21.039Z,25.70
2022-12-23T14:39:51.169Z,25.70
2022-12-23T14:42:44.031Z,28.88
2022-12-23T14:45:37.069Z,24.83
2022-12-23T14:48:34.511Z,24.10
2022-12-23T14:51:23.493Z,31.52
2022-12-23T14:54:14.281Z,28.55
2022-12-23T14:57:01.336Z,21.85
2022-12-23T14:59:38.267Z,23.13
2022-12-23T15:02:21.283Z,21.38
2022-12-23T15:04:58.060Z,25.95
2022-12-23T15:07:34.864Z,22.00
2022-12-23T15:10:08.158Z,24.98
2022-12-23T15:12:42.845Z,24.35
2022-12-23T15:15:26.306Z,25.15
2022-12-23T15:18:06.513Z,24.92
2022-12-23T15:20:35.564Z,26.08
2022-12-23T15:23:10.781Z,32.83
2022-12-23T15:28:22.023Z,28.40
2022-12-23T15:30:54.509Z,31.63
2022-12-23T15:34:01.668Z,26.40
2022-12-23T15:36:20.835Z,26.10
2022-12-23T15:38:49.342Z,30.25
2022-12-23T15:41:19.002Z,42.08
2022-12-23T15:43:47.520Z,75.78
2022-12-23T15:46:25.039Z,45.45
2022-12-23T15:48:56.703Z,38.63
2022-12-23T15:54:30.412Z,66.30
2022-12-23T15:57:00.759Z,52.78
2022-12-23T15:59:34.735Z,38.00
2022-12-23T16:02:59.573Z,55.70
2022-12-23T16:05:31.222Z,86.65
2022-12-23T16:08:16.632Z,95.72
2022-12-23T16:11:02.699Z,105.25
2022-12-23T16:13:31.939Z,70.03
2022-12-23T16:16:31.707Z,46.78
2022-12-23T16:21:37.855Z,70.10
2022-12-23T16:24:10.090Z,86.53
2022-12-23T16:26:43.524Z,83.80
2022-12-23T16:29:12.952Z,89.50
2022-12-23T16:31:48.239Z,94.95
2022-12-23T16:34:20.717Z,106.80
2022-12-23T16:36:49.250Z,103.35
2022-12-23T16:39:22.203Z,96.40
2022-12-23T16:41:51.217Z,92.78
2022-12-23T16:44:19.643Z,72.07
2022-12-23T16:46:50.557Z,82.32
2022-12-23T16:49:21.905Z,98.28
2022-12-23T16:51:50.744Z,96.32
2022-12-23T16:54:20.599Z,99.53
2022-12-23T16:56:50.425Z,109.55
2022-12-23T16:59:20.208Z,76.97
2022-12-23T17:01:49.920Z,81.65
2022-12-23T17:04:18.486Z,99.07
2022-12-23T17:06:47.041Z,71.90
2022-12-23T17:09:15.642Z,93.72
2022-12-23T17:11:47.371Z,93.55
2022-12-23T17:14:27.130Z,101.60
2022-12-23T17:16:55.621Z,115.97
2022-12-23T17:19:29.384Z,91.97
2022-12-23T17:22:03.284Z,81.50
2022-12-23T17:24:32.289Z,51.83
2022-12-23T17:27:00.697Z,61.45
2022-12-23T17:29:29.451Z,102.55
2022-12-23T17:31:58.444Z,114.13
2022-12-23T17:34:27.047Z,99.10
2022-12-23T17:36:55.685Z,120.50
2022-12-23T17:39:24.208Z,94.50
2022-12-23T17:41:52.608Z,127.90
2022-12-23T17:44:21.505Z,79.00
2022-12-23T17:46:50.039Z,69.63
2022-12-23T17:49:18.502Z,49.03
2022-12-23T17:51:47.211Z,58.10
2022-12-23T17:54:25.320Z,60.88
2022-12-23T17:56:54.018Z,88.22
2022-12-23T17:59:22.597Z,63.55
2022-12-23T18:01:51.125Z,40.53
2022-12-23T18:04:19.696Z,25.60
2022-12-23T18:06:48.256Z,21.25
2022-12-23T18:09:19.091Z,19.50
2022-12-23T18:11:48.465Z,25.27
2022-12-23T18:14:24.107Z,33.63
2022-12-23T18:16:52.480Z,92.05
2022-12-23T18:19:21.592Z,105.40
2022-12-23T18:21:51.508Z,109.18
2022-12-23T18:24:20.408Z,104.93
2022-12-23T18:26:48.729Z,119.07
2022-12-23T18:29:17.397Z,98.78
2022-12-23T18:31:51.559Z,99.72
2022-12-23T18:34:21.481Z,77.85
2022-12-23T18:36:52.234Z,81.53
2022-12-23T18:39:21.542Z,79.30
2022-12-23T18:41:50.284Z,70.60
2022-12-23T18:44:20.953Z,57.55
2022-12-23T18:46:50.010Z,61.30
2022-12-23T18:49:18.458Z,48.70
2022-12-23T18:51:47.627Z,85.07
2022-12-23T18:54:16.541Z,97.25
2022-12-23T18:56:45.128Z,94.78
2022-12-23T18:59:29.331Z,99.60
2022-12-23T19:01:59.491Z,131.43
2022-12-23T19:04:28.334Z,131.05
2022-12-23T19:06:57.243Z,110.18
2022-12-23T19:09:26.292Z,132.10
2022-12-23T19:11:54.875Z,129.45
2022-12-23T19:14:23.759Z,129.80
2022-12-23T19:16:52.876Z,121.45
2022-12-23T19:19:22.408Z,139.98
2022-12-23T19:21:51.006Z,125.47
2022-12-23T19:24:19.599Z,105.88
2022-12-23T19:26:48.498Z,76.72
2022-12-23T19:29:17.402Z,46.80
2022-12-23T19:31:45.872Z,47.58
2022-12-23T19:34:15.743Z,47.80
2022-12-23T19:36:45.003Z,50.63
2022-12-23T19:39:17.070Z,28.73
2022-12-23T19:41:45.978Z,57.95
2022-12-23T19:44:14.909Z,80.72
2022-12-23T19:46:43.729Z,107.07
2022-12-23T19:49:19.163Z,118.18
2022-12-23T19:51:49.238Z,42.05
2022-12-23T19:54:19.092Z,19.80
2022-12-23T19:56:51.530Z,30.85
2022-12-23T19:59:21.276Z,28.98
2022-12-23T20:01:49.958Z,19.67
2022-12-23T20:04:18.949Z,17.13
2022-12-23T20:06:47.252Z,16.65
2022-12-23T20:09:15.715Z,31.73
2022-12-23T20:11:48.826Z,35.47
2022-12-23T20:14:19.586Z,44.95
2022-12-23T20:16:48.978Z,50.25
2022-12-23T20:19:18.040Z,31.90
2022-12-23T20:21:46.945Z,29.05
2022-12-23T20:24:16.018Z,30.15
2022-12-23T20:29:12.611Z,42.45
2022-12-23T20:31:40.997Z,43.33
2022-12-23T20:34:15.481Z,48.20
2022-12-23T20:36:44.576Z,73.95
2022-12-23T20:39:13.537Z,86.18
2022-12-23T20:41:41.941Z,92.38
2022-12-23T20:44:34.038Z,98.35
2022-12-23T20:46:59.429Z,83.15
2022-12-23T20:49:27.950Z,83.00
2022-12-23T20:51:56.565Z,71.97
2022-12-23T20:54:30.015Z,50.83
2022-12-23T20:57:01.941Z,44.97
2022-12-23T21:01:59.548Z,47.95
2022-12-23T21:04:28.445Z,59.88
2022-12-23T21:06:57.000Z,62.53
2022-12-23T21:09:25.401Z,55.65
2022-12-23T21:11:54.250Z,60.72
2022-12-23T21:14:22.885Z,61.40
2022-12-23T21:16:51.477Z,59.05
2022-12-23T21:19:23.074Z,56.08
2022-12-23T21:21:52.538Z,53.70
2022-12-23T21:24:21.777Z,69.53
2022-12-23T21:26:56.469Z,86.93
2022-12-23T21:31:55.395Z,64.85
2022-12-23T21:34:23.993Z,52.60
2022-12-23T21:36:52.017Z,47.22
2022-12-23T21:39:20.347Z,76.80
2022-12-23T21:41:51.583Z,63.42
2022-12-23T21:44:19.735Z,51.60
2022-12-23T21:46:50.265Z,52.55
2022-12-23T21:49:20.954Z,43.88
2022-12-23T21:51:48.952Z,43.00
2022-12-23T21:54:16.952Z,50.25
2022-12-23T21:56:45.205Z,50.42
2022-12-23T21:59:15.065Z,48.78
2022-12-23T22:01:44.192Z,51.60
2022-12-23T22:04:12.969Z,60.13
2022-12-23T22:06:44.186Z,47.28
2022-12-23T22:09:15.681Z,39.67
2022-12-23T22:11:44.521Z,32.47
2022-12-23T22:14:15.223Z,42.15
2022-12-23T22:16:43.338Z,42.92
2022-12-23T22:19:12.636Z,38.20
2022-12-23T22:21:42.870Z,34.00
2022-12-23T22:24:11.182Z,35.15
2022-12-23T22:26:39.740Z,33.60
2022-12-23T22:29:08.372Z,51.40
2022-12-23T22:31:40.486Z,46.92
2022-12-23T22:34:12.685Z,39.53
2022-12-23T22:36:40.736Z,45.40
2022-12-23T22:39:10.806Z,40.40
2022-12-23T22:41:41.083Z,43.97
2022-12-23T22:44:12.116Z,46.80
2022-12-23T22:46:40.141Z,45.50
2022-12-23T22:49:08.164Z,48.20
2022-12-23T22:51:36.127Z,50.42
2022-12-23T22:54:04.255Z,51.58
2022-12-23T22:56:32.354Z,38.80
2022-12-23T22:59:00.284Z,53.38
2022-12-23T23:01:31.068Z,45.78
2022-12-23T23:04:01.535Z,39.72
2022-12-23T23:06:32.340Z,52.13
2022-12-23T23:09:00.950Z,47.63
2022-12-23T23:11:29.015Z,42.35
2022-12-23T23:13:57.417Z,43.65
2022-12-23T23:16:26.604Z,45.13
2022-12-23T23:23:51.004Z,22.67
2022-12-23T23:26:20.667Z,24.83
2022-12-23T23:28:48.766Z,24.92
2022-12-23T23:31:41.409Z,29.73
2022-12-23T23:34:04.738Z,24.23
2022-12-23T23:36:32.653Z,23.88
2022-12-23T23:39:00.587Z,22.15
2022-12-23T23:41:28.431Z,20.20
2022-12-23T23:43:56.458Z,18.90
2022-12-23T23:46:24.408Z,20.42
2022-12-23T23:48:52.578Z,19.02
2022-12-23T23:51:20.442Z,19.77
2022-12-23T23:53:48.394Z,21.67
2022-12-23T23:56:22.064Z,23.23
2022-12-23T23:58:53.008Z,22.88
